Cuba, New York
Current Conditions -  °F | °C
As of 8:55 AM on Monday 24 Nov 2014 (Local Time) from KOLE Reporting Station
Moderate Rain Moderate Rain  
Wind Chill: 54°   Ceiling: 1600
Heat Index: 54°   Visibility: 7mi
Dew Point: 54°   Wind: 17mph
Humidity: 100%   Direction: 200°SSW
Pressure: 29.42"   Gusts: 28mph
Location:  42.22°N, 78.28°W
Report Text: KOLE 241355Z AUTO 20015G24KT 7SM RA BKN016 BKN023 OVC030 12/12 A2942 RMK AO2
Loading
Personal Weather Stations






























Interactive Weather Map New forecast layout! Learn more

10-Day Weather Forecast

Advertisements
Track Severe Weather on mobile